sensor_id;sensor_type;location;lat;lon;timestamp;P1;durP1;ratioP1;P2;durP2;ratioP2
39970;SDS011;35425;51.142;17.178;2022-12-18T00:01:42;8.90;;;6.63;;
39970;SDS011;35425;51.142;17.178;2022-12-18T00:04:15;8.75;;;6.55;;
39970;SDS011;35425;51.142;17.178;2022-12-18T00:06:45;8.02;;;6.07;;
39970;SDS011;35425;51.142;17.178;2022-12-18T00:09:13;8.98;;;6.25;;
39970;SDS011;35425;51.142;17.178;2022-12-18T00:11:39;9.40;;;6.50;;
39970;SDS011;35425;51.142;17.178;2022-12-18T00:14:06;8.27;;;6.55;;
39970;SDS011;35425;51.142;17.178;2022-12-18T00:16:32;8.45;;;6.40;;
39970;SDS011;35425;51.142;17.178;2022-12-18T00:19:01;8.18;;;5.93;;
39970;SDS011;35425;51.142;17.178;2022-12-18T00:21:28;8.50;;;6.78;;
39970;SDS011;35425;51.142;17.178;2022-12-18T00:23:56;9.23;;;6.60;;
39970;SDS011;35425;51.142;17.178;2022-12-18T00:26:23;8.70;;;6.43;;
39970;SDS011;35425;51.142;17.178;2022-12-18T00:28:51;7.90;;;5.95;;
39970;SDS011;35425;51.142;17.178;2022-12-18T00:31:22;9.75;;;6.70;;
39970;SDS011;35425;51.142;17.178;2022-12-18T00:33:49;8.40;;;6.53;;
39970;SDS011;35425;51.142;17.178;2022-12-18T00:36:21;8.35;;;6.10;;
39970;SDS011;35425;51.142;17.178;2022-12-18T00:38:47;8.55;;;6.20;;
39970;SDS011;35425;51.142;17.178;2022-12-18T00:41:14;8.18;;;6.43;;
39970;SDS011;35425;51.142;17.178;2022-12-18T00:44:01;8.07;;;6.18;;
39970;SDS011;35425;51.142;17.178;2022-12-18T00:46:27;8.13;;;6.18;;
39970;SDS011;35425;51.142;17.178;2022-12-18T00:48:54;8.25;;;5.88;;
39970;SDS011;35425;51.142;17.178;2022-12-18T00:51:20;7.82;;;5.93;;
39970;SDS011;35425;51.142;17.178;2022-12-18T00:53:47;8.05;;;5.82;;
39970;SDS011;35425;51.142;17.178;2022-12-18T00:56:13;7.72;;;5.35;;
39970;SDS011;35425;51.142;17.178;2022-12-18T00:58:39;6.88;;;5.30;;
39970;SDS011;35425;51.142;17.178;2022-12-18T01:01:06;7.70;;;5.85;;
39970;SDS011;35425;51.142;17.178;2022-12-18T01:03:33;7.65;;;5.85;;
39970;SDS011;35425;51.142;17.178;2022-12-18T01:05:59;7.60;;;5.97;;
39970;SDS011;35425;51.142;17.178;2022-12-18T01:08:25;6.88;;;5.88;;
39970;SDS011;35425;51.142;17.178;2022-12-18T01:10:52;8.00;;;5.50;;
39970;SDS011;35425;51.142;17.178;2022-12-18T01:13:18;7.78;;;6.00;;
39970;SDS011;35425;51.142;17.178;2022-12-18T01:15:51;8.75;;;5.88;;
39970;SDS011;35425;51.142;17.178;2022-12-18T01:18:17;6.95;;;5.15;;
39970;SDS011;35425;51.142;17.178;2022-12-18T01:20:44;7.95;;;5.82;;
39970;SDS011;35425;51.142;17.178;2022-12-18T01:23:10;7.50;;;5.38;;
39970;SDS011;35425;51.142;17.178;2022-12-18T01:25:37;5.90;;;4.72;;
39970;SDS011;35425;51.142;17.178;2022-12-18T01:28:04;6.82;;;5.32;;
39970;SDS011;35425;51.142;17.178;2022-12-18T01:30:30;7.15;;;4.97;;
39970;SDS011;35425;51.142;17.178;2022-12-18T01:32:57;6.93;;;5.70;;
39970;SDS011;35425;51.142;17.178;2022-12-18T01:35:23;6.90;;;5.40;;
39970;SDS011;35425;51.142;17.178;2022-12-18T01:37:53;6.63;;;5.10;;
39970;SDS011;35425;51.142;17.178;2022-12-18T01:40:20;7.78;;;5.28;;
39970;SDS011;35425;51.142;17.178;2022-12-18T01:42:53;6.68;;;5.05;;
39970;SDS011;35425;51.142;17.178;2022-12-18T01:45:23;7.20;;;5.05;;
39970;SDS011;35425;51.142;17.178;2022-12-18T01:50:18;6.40;;;5.03;;
39970;SDS011;35425;51.142;17.178;2022-12-18T01:52:46;7.72;;;5.53;;
39970;SDS011;35425;51.142;17.178;2022-12-18T01:55:14;6.85;;;5.25;;
39970;SDS011;35425;51.142;17.178;2022-12-18T01:57:42;7.50;;;5.35;;
39970;SDS011;35425;51.142;17.178;2022-12-18T02:00:18;7.40;;;5.38;;
39970;SDS011;35425;51.142;17.178;2022-12-18T02:02:45;6.65;;;5.15;;
39970;SDS011;35425;51.142;17.178;2022-12-18T02:05:13;5.78;;;4.80;;
39970;SDS011;35425;51.142;17.178;2022-12-18T02:08:15;7.45;;;5.30;;
39970;SDS011;35425;51.142;17.178;2022-12-18T02:10:36;6.32;;;5.10;;
39970;SDS011;35425;51.142;17.178;2022-12-18T02:15:32;7.72;;;5.45;;
39970;SDS011;35425;51.142;17.178;2022-12-18T02:18:12;6.88;;;5.20;;
39970;SDS011;35425;51.142;17.178;2022-12-18T02:23:09;7.50;;;5.50;;
39970;SDS011;35425;51.142;17.178;2022-12-18T02:26:05;7.40;;;5.25;;
39970;SDS011;35425;51.142;17.178;2022-12-18T02:31:47;8.00;;;5.07;;
39970;SDS011;35425;51.142;17.178;2022-12-18T02:34:16;7.05;;;4.90;;
39970;SDS011;35425;51.142;17.178;2022-12-18T02:36:44;6.25;;;4.93;;
39970;SDS011;35425;51.142;17.178;2022-12-18T02:39:35;7.22;;;5.28;;
39970;SDS011;35425;51.142;17.178;2022-12-18T02:42:02;7.65;;;5.20;;
39970;SDS011;35425;51.142;17.178;2022-12-18T02:44:41;7.63;;;5.05;;
39970;SDS011;35425;51.142;17.178;2022-12-18T02:47:15;7.15;;;5.13;;
39970;SDS011;35425;51.142;17.178;2022-12-18T02:49:51;7.07;;;5.38;;
39970;SDS011;35425;51.142;17.178;2022-12-18T02:57:45;7.00;;;4.97;;
39970;SDS011;35425;51.142;17.178;2022-12-18T03:00:23;7.03;;;4.70;;
39970;SDS011;35425;51.142;17.178;2022-12-18T03:02:58;7.22;;;4.72;;
39970;SDS011;35425;51.142;17.178;2022-12-18T03:05:30;7.68;;;5.05;;
39970;SDS011;35425;51.142;17.178;2022-12-18T03:08:03;7.10;;;5.50;;
39970;SDS011;35425;51.142;17.178;2022-12-18T03:10:38;7.35;;;5.03;;
39970;SDS011;35425;51.142;17.178;2022-12-18T03:13:13;7.50;;;5.38;;
39970;SDS011;35425;51.142;17.178;2022-12-18T03:15:45;6.80;;;5.00;;
39970;SDS011;35425;51.142;17.178;2022-12-18T03:18:14;6.25;;;4.57;;
39970;SDS011;35425;51.142;17.178;2022-12-18T03:20:45;6.65;;;4.75;;
39970;SDS011;35425;51.142;17.178;2022-12-18T03:23:19;6.90;;;5.20;;
39970;SDS011;35425;51.142;17.178;2022-12-18T03:26:07;6.82;;;4.85;;
39970;SDS011;35425;51.142;17.178;2022-12-18T03:28:38;6.85;;;4.75;;
39970;SDS011;35425;51.142;17.178;2022-12-18T03:31:09;6.72;;;4.88;;
39970;SDS011;35425;51.142;17.178;2022-12-18T03:33:41;6.88;;;4.55;;
39970;SDS011;35425;51.142;17.178;2022-12-18T03:36:13;6.95;;;5.10;;
39970;SDS011;35425;51.142;17.178;2022-12-18T03:39:00;6.72;;;5.00;;
39970;SDS011;35425;51.142;17.178;2022-12-18T03:41:33;7.47;;;5.05;;
39970;SDS011;35425;51.142;17.178;2022-12-18T03:53:01;5.65;;;4.93;;
39970;SDS011;35425;51.142;17.178;2022-12-18T03:55:32;6.55;;;4.85;;
39970;SDS011;35425;51.142;17.178;2022-12-18T03:58:00;6.10;;;4.55;;
39970;SDS011;35425;51.142;17.178;2022-12-18T04:00:37;7.72;;;5.28;;
39970;SDS011;35425;51.142;17.178;2022-12-18T04:03:22;6.93;;;4.97;;
39970;SDS011;35425;51.142;17.178;2022-12-18T04:06:02;7.30;;;5.22;;
39970;SDS011;35425;51.142;17.178;2022-12-18T04:08:30;6.55;;;4.57;;
39970;SDS011;35425;51.142;17.178;2022-12-18T04:10:56;6.25;;;4.60;;
39970;SDS011;35425;51.142;17.178;2022-12-18T04:13:24;6.97;;;5.30;;
39970;SDS011;35425;51.142;17.178;2022-12-18T04:15:55;6.65;;;4.55;;
39970;SDS011;35425;51.142;17.178;2022-12-18T04:18:22;6.95;;;4.75;;
39970;SDS011;35425;51.142;17.178;2022-12-18T04:20:48;6.38;;;4.80;;
39970;SDS011;35425;51.142;17.178;2022-12-18T04:23:16;6.53;;;4.78;;
39970;SDS011;35425;51.142;17.178;2022-12-18T04:25:43;6.47;;;4.82;;
39970;SDS011;35425;51.142;17.178;2022-12-18T04:28:10;6.95;;;4.85;;
39970;SDS011;35425;51.142;17.178;2022-12-18T04:30:36;7.25;;;4.90;;
39970;SDS011;35425;51.142;17.178;2022-12-18T04:33:03;6.35;;;4.93;;
39970;SDS011;35425;51.142;17.178;2022-12-18T04:35:30;6.10;;;4.60;;
39970;SDS011;35425;51.142;17.178;2022-12-18T04:37:59;6.38;;;4.75;;
39970;SDS011;35425;51.142;17.178;2022-12-18T04:40:37;5.95;;;4.60;;
39970;SDS011;35425;51.142;17.178;2022-12-18T04:43:04;6.63;;;5.03;;
39970;SDS011;35425;51.142;17.178;2022-12-18T04:45:31;6.82;;;5.13;;
39970;SDS011;35425;51.142;17.178;2022-12-18T04:47:58;6.18;;;4.90;;
39970;SDS011;35425;51.142;17.178;2022-12-18T04:50:24;7.13;;;4.90;;
39970;SDS011;35425;51.142;17.178;2022-12-18T04:52:51;8.07;;;5.05;;
39970;SDS011;35425;51.142;17.178;2022-12-18T04:55:18;6.55;;;4.85;;
39970;SDS011;35425;51.142;17.178;2022-12-18T04:57:44;7.05;;;5.18;;
39970;SDS011;35425;51.142;17.178;2022-12-18T05:00:13;6.50;;;4.75;;
39970;SDS011;35425;51.142;17.178;2022-12-18T05:02:40;6.78;;;4.78;;
39970;SDS011;35425;51.142;17.178;2022-12-18T05:05:07;7.43;;;5.00;;
39970;SDS011;35425;51.142;17.178;2022-12-18T05:07:33;7.15;;;4.80;;
39970;SDS011;35425;51.142;17.178;2022-12-18T05:10:00;6.63;;;4.43;;
39970;SDS011;35425;51.142;17.178;2022-12-18T05:12:26;6.50;;;5.00;;
39970;SDS011;35425;51.142;17.178;2022-12-18T05:14:52;6.28;;;4.82;;
39970;SDS011;35425;51.142;17.178;2022-12-18T05:17:19;6.22;;;4.93;;
39970;SDS011;35425;51.142;17.178;2022-12-18T05:19:45;6.00;;;4.20;;
39970;SDS011;35425;51.142;17.178;2022-12-18T05:22:12;6.55;;;4.97;;
39970;SDS011;35425;51.142;17.178;2022-12-18T05:24:38;6.80;;;4.80;;
39970;SDS011;35425;51.142;17.178;2022-12-18T05:27:05;4.68;;;4.13;;
39970;SDS011;35425;51.142;17.178;2022-12-18T05:29:31;6.07;;;4.65;;
39970;SDS011;35425;51.142;17.178;2022-12-18T05:31:58;6.70;;;4.82;;
39970;SDS011;35425;51.142;17.178;2022-12-18T05:34:24;7.05;;;4.32;;
39970;SDS011;35425;51.142;17.178;2022-12-18T05:36:51;6.32;;;4.53;;
39970;SDS011;35425;51.142;17.178;2022-12-18T05:39:17;6.60;;;4.82;;
39970;SDS011;35425;51.142;17.178;2022-12-18T05:41:44;6.63;;;4.80;;
39970;SDS011;35425;51.142;17.178;2022-12-18T05:44:10;6.18;;;4.60;;
39970;SDS011;35425;51.142;17.178;2022-12-18T05:46:42;6.10;;;4.45;;
39970;SDS011;35425;51.142;17.178;2022-12-18T05:49:12;6.45;;;4.93;;
39970;SDS011;35425;51.142;17.178;2022-12-18T05:51:38;7.22;;;4.75;;
39970;SDS011;35425;51.142;17.178;2022-12-18T05:54:06;5.95;;;4.43;;
39970;SDS011;35425;51.142;17.178;2022-12-18T05:56:33;5.97;;;4.82;;
39970;SDS011;35425;51.142;17.178;2022-12-18T05:58:59;6.10;;;4.60;;
39970;SDS011;35425;51.142;17.178;2022-12-18T06:01:26;7.22;;;5.03;;
39970;SDS011;35425;51.142;17.178;2022-12-18T06:03:53;6.10;;;4.35;;
39970;SDS011;35425;51.142;17.178;2022-12-18T06:06:21;6.20;;;4.53;;
39970;SDS011;35425;51.142;17.178;2022-12-18T06:08:48;5.53;;;4.35;;
39970;SDS011;35425;51.142;17.178;2022-12-18T06:11:18;5.32;;;4.43;;
39970;SDS011;35425;51.142;17.178;2022-12-18T06:13:45;7.03;;;4.93;;
39970;SDS011;35425;51.142;17.178;2022-12-18T06:16:11;6.32;;;4.63;;
39970;SDS011;35425;51.142;17.178;2022-12-18T06:18:38;5.82;;;4.32;;
39970;SDS011;35425;51.142;17.178;2022-12-18T06:21:04;6.47;;;4.47;;
39970;SDS011;35425;51.142;17.178;2022-12-18T06:23:31;6.00;;;4.70;;
39970;SDS011;35425;51.142;17.178;2022-12-18T06:25:57;6.10;;;4.55;;
39970;SDS011;35425;51.142;17.178;2022-12-18T06:28:24;6.15;;;4.38;;
39970;SDS011;35425;51.142;17.178;2022-12-18T06:30:50;6.35;;;4.30;;
39970;SDS011;35425;51.142;17.178;2022-12-18T06:33:17;6.28;;;4.47;;
39970;SDS011;35425;51.142;17.178;2022-12-18T06:35:43;5.93;;;4.57;;
39970;SDS011;35425;51.142;17.178;2022-12-18T06:38:09;6.18;;;4.35;;
39970;SDS011;35425;51.142;17.178;2022-12-18T06:40:37;6.50;;;4.65;;
39970;SDS011;35425;51.142;17.178;2022-12-18T06:43:04;5.20;;;4.30;;
39970;SDS011;35425;51.142;17.178;2022-12-18T06:45:30;6.97;;;4.50;;
39970;SDS011;35425;51.142;17.178;2022-12-18T06:47:57;6.07;;;4.50;;
39970;SDS011;35425;51.142;17.178;2022-12-18T06:50:24;6.43;;;4.25;;
39970;SDS011;35425;51.142;17.178;2022-12-18T06:52:50;5.82;;;4.50;;
39970;SDS011;35425;51.142;17.178;2022-12-18T06:55:17;7.22;;;4.72;;
39970;SDS011;35425;51.142;17.178;2022-12-18T06:57:43;6.18;;;4.22;;
39970;SDS011;35425;51.142;17.178;2022-12-18T07:00:09;5.43;;;4.22;;
39970;SDS011;35425;51.142;17.178;2022-12-18T07:02:36;6.88;;;4.50;;
39970;SDS011;35425;51.142;17.178;2022-12-18T07:05:03;5.93;;;4.47;;
39970;SDS011;35425;51.142;17.178;2022-12-18T07:07:35;5.95;;;4.60;;
39970;SDS011;35425;51.142;17.178;2022-12-18T07:10:02;6.20;;;4.75;;
39970;SDS011;35425;51.142;17.178;2022-12-18T07:12:28;5.05;;;4.45;;
39970;SDS011;35425;51.142;17.178;2022-12-18T07:14:55;6.22;;;4.63;;
39970;SDS011;35425;51.142;17.178;2022-12-18T07:17:21;6.15;;;4.95;;
39970;SDS011;35425;51.142;17.178;2022-12-18T07:19:48;6.38;;;4.78;;
39970;SDS011;35425;51.142;17.178;2022-12-18T07:22:14;6.35;;;4.53;;
39970;SDS011;35425;51.142;17.178;2022-12-18T07:24:42;7.72;;;4.53;;
39970;SDS011;35425;51.142;17.178;2022-12-18T07:27:12;7.07;;;4.90;;
39970;SDS011;35425;51.142;17.178;2022-12-18T07:29:38;7.25;;;5.20;;
39970;SDS011;35425;51.142;17.178;2022-12-18T07:32:07;9.45;;;5.78;;
39970;SDS011;35425;51.142;17.178;2022-12-18T07:34:35;10.05;;;6.22;;
39970;SDS011;35425;51.142;17.178;2022-12-18T07:37:04;7.68;;;5.53;;
39970;SDS011;35425;51.142;17.178;2022-12-18T07:39:31;8.48;;;6.53;;
39970;SDS011;35425;51.142;17.178;2022-12-18T07:42:09;8.27;;;5.97;;
39970;SDS011;35425;51.142;17.178;2022-12-18T07:44:56;9.20;;;6.60;;
39970;SDS011;35425;51.142;17.178;2022-12-18T07:47:23;8.57;;;6.57;;
39970;SDS011;35425;51.142;17.178;2022-12-18T07:49:50;9.43;;;7.53;;
39970;SDS011;35425;51.142;17.178;2022-12-18T07:52:19;9.73;;;7.60;;
39970;SDS011;35425;51.142;17.178;2022-12-18T07:54:54;10.13;;;6.68;;
39970;SDS011;35425;51.142;17.178;2022-12-18T07:57:22;9.90;;;6.93;;
39970;SDS011;35425;51.142;17.178;2022-12-18T08:00:09;11.38;;;8.00;;
39970;SDS011;35425;51.142;17.178;2022-12-18T08:02:36;13.57;;;8.95;;
39970;SDS011;35425;51.142;17.178;2022-12-18T08:05:02;11.07;;;7.97;;
39970;SDS011;35425;51.142;17.178;2022-12-18T08:07:29;11.90;;;9.00;;
39970;SDS011;35425;51.142;17.178;2022-12-18T08:09:56;13.63;;;9.82;;
39970;SDS011;35425;51.142;17.178;2022-12-18T08:12:22;13.15;;;10.13;;
39970;SDS011;35425;51.142;17.178;2022-12-18T08:14:49;14.10;;;10.40;;
39970;SDS011;35425;51.142;17.178;2022-12-18T08:17:15;14.65;;;9.85;;
39970;SDS011;35425;51.142;17.178;2022-12-18T08:19:41;16.83;;;10.85;;
39970;SDS011;35425;51.142;17.178;2022-12-18T08:22:08;13.65;;;10.13;;
39970;SDS011;35425;51.142;17.178;2022-12-18T08:24:34;13.45;;;10.27;;
39970;SDS011;35425;51.142;17.178;2022-12-18T08:27:01;15.85;;;11.50;;
39970;SDS011;35425;51.142;17.178;2022-12-18T08:29:47;14.52;;;10.38;;
39970;SDS011;35425;51.142;17.178;2022-12-18T08:32:14;17.42;;;11.13;;
39970;SDS011;35425;51.142;17.178;2022-12-18T08:34:40;17.00;;;11.25;;
39970;SDS011;35425;51.142;17.178;2022-12-18T08:37:07;13.23;;;10.30;;
39970;SDS011;35425;51.142;17.178;2022-12-18T08:39:33;15.52;;;11.27;;
39970;SDS011;35425;51.142;17.178;2022-12-18T08:42:00;14.88;;;10.63;;
39970;SDS011;35425;51.142;17.178;2022-12-18T08:44:45;17.30;;;12.10;;
39970;SDS011;35425;51.142;17.178;2022-12-18T08:47:12;18.25;;;12.40;;
39970;SDS011;35425;51.142;17.178;2022-12-18T08:49:38;17.42;;;12.13;;
39970;SDS011;35425;51.142;17.178;2022-12-18T08:52:05;16.63;;;11.45;;
39970;SDS011;35425;51.142;17.178;2022-12-18T08:54:31;16.98;;;11.40;;
39970;SDS011;35425;51.142;17.178;2022-12-18T08:56:57;15.57;;;12.10;;
39970;SDS011;35425;51.142;17.178;2022-12-18T08:59:24;20.65;;;13.23;;
39970;SDS011;35425;51.142;17.178;2022-12-18T09:01:53;18.88;;;12.38;;
39970;SDS011;35425;51.142;17.178;2022-12-18T09:04:20;19.85;;;13.02;;
39970;SDS011;35425;51.142;17.178;2022-12-18T09:06:46;18.73;;;12.70;;
39970;SDS011;35425;51.142;17.178;2022-12-18T09:09:13;17.85;;;13.23;;
39970;SDS011;35425;51.142;17.178;2022-12-18T09:11:39;18.92;;;12.63;;
39970;SDS011;35425;51.142;17.178;2022-12-18T09:14:06;19.33;;;12.57;;
39970;SDS011;35425;51.142;17.178;2022-12-18T09:16:32;17.02;;;12.60;;
39970;SDS011;35425;51.142;17.178;2022-12-18T09:19:01;18.75;;;12.85;;
39970;SDS011;35425;51.142;17.178;2022-12-18T09:21:29;18.83;;;13.70;;
39970;SDS011;35425;51.142;17.178;2022-12-18T09:23:57;18.63;;;14.07;;
39970;SDS011;35425;51.142;17.178;2022-12-18T09:26:24;18.88;;;12.85;;
39970;SDS011;35425;51.142;17.178;2022-12-18T09:28:51;19.02;;;14.13;;
39970;SDS011;35425;51.142;17.178;2022-12-18T09:31:18;18.77;;;13.73;;
39970;SDS011;35425;51.142;17.178;2022-12-18T09:33:45;19.50;;;13.52;;
39970;SDS011;35425;51.142;17.178;2022-12-18T09:36:12;18.80;;;13.68;;
39970;SDS011;35425;51.142;17.178;2022-12-18T09:38:39;19.58;;;13.55;;
39970;SDS011;35425;51.142;17.178;2022-12-18T09:43:43;18.30;;;13.82;;
39970;SDS011;35425;51.142;17.178;2022-12-18T09:46:12;19.35;;;13.65;;
39970;SDS011;35425;51.142;17.178;2022-12-18T09:48:43;18.17;;;13.80;;
39970;SDS011;35425;51.142;17.178;2022-12-18T09:51:13;18.00;;;13.30;;
39970;SDS011;35425;51.142;17.178;2022-12-18T09:53:41;18.58;;;13.77;;
39970;SDS011;35425;51.142;17.178;2022-12-18T09:56:12;18.60;;;13.70;;
39970;SDS011;35425;51.142;17.178;2022-12-18T09:58:44;17.27;;;12.85;;
39970;SDS011;35425;51.142;17.178;2022-12-18T10:01:18;19.73;;;13.98;;
39970;SDS011;35425;51.142;17.178;2022-12-18T10:03:47;19.02;;;13.48;;
39970;SDS011;35425;51.142;17.178;2022-12-18T10:06:15;18.17;;;13.20;;
39970;SDS011;35425;51.142;17.178;2022-12-18T10:08:46;20.13;;;14.13;;
39970;SDS011;35425;51.142;17.178;2022-12-18T10:13:44;17.63;;;13.18;;
39970;SDS011;35425;51.142;17.178;2022-12-18T10:16:15;16.50;;;12.77;;
39970;SDS011;35425;51.142;17.178;2022-12-18T10:18:48;17.48;;;12.32;;
39970;SDS011;35425;51.142;17.178;2022-12-18T10:21:19;19.25;;;12.88;;
39970;SDS011;35425;51.142;17.178;2022-12-18T10:26:14;16.45;;;12.48;;
39970;SDS011;35425;51.142;17.178;2022-12-18T10:28:41;16.13;;;12.32;;
39970;SDS011;35425;51.142;17.178;2022-12-18T10:31:19;16.77;;;12.40;;
39970;SDS011;35425;51.142;17.178;2022-12-18T10:33:45;18.17;;;13.55;;
39970;SDS011;35425;51.142;17.178;2022-12-18T10:36:12;17.13;;;12.68;;
39970;SDS011;35425;51.142;17.178;2022-12-18T10:38:38;16.95;;;12.80;;
39970;SDS011;35425;51.142;17.178;2022-12-18T10:41:07;14.95;;;11.77;;
39970;SDS011;35425;51.142;17.178;2022-12-18T10:44:26;15.43;;;12.45;;
39970;SDS011;35425;51.142;17.178;2022-12-18T10:46:46;16.23;;;12.50;;
39970;SDS011;35425;51.142;17.178;2022-12-18T10:49:18;15.40;;;11.32;;
39970;SDS011;35425;51.142;17.178;2022-12-18T10:51:45;14.27;;;11.63;;
39970;SDS011;35425;51.142;17.178;2022-12-18T10:54:16;14.48;;;11.55;;
39970;SDS011;35425;51.142;17.178;2022-12-18T10:56:43;15.25;;;11.45;;
39970;SDS011;35425;51.142;17.178;2022-12-18T10:59:12;13.95;;;11.20;;
39970;SDS011;35425;51.142;17.178;2022-12-18T11:01:49;12.85;;;10.85;;
39970;SDS011;35425;51.142;17.178;2022-12-18T11:04:17;15.60;;;11.80;;
39970;SDS011;35425;51.142;17.178;2022-12-18T11:07:00;12.88;;;11.00;;
39970;SDS011;35425;51.142;17.178;2022-12-18T11:11:57;13.13;;;11.07;;
39970;SDS011;35425;51.142;17.178;2022-12-18T11:14:29;14.05;;;11.35;;
39970;SDS011;35425;51.142;17.178;2022-12-18T11:16:57;14.20;;;11.50;;
39970;SDS011;35425;51.142;17.178;2022-12-18T11:19:44;13.85;;;11.02;;
39970;SDS011;35425;51.142;17.178;2022-12-18T11:22:21;13.35;;;10.80;;
39970;SDS011;35425;51.142;17.178;2022-12-18T11:24:52;13.65;;;10.70;;
39970;SDS011;35425;51.142;17.178;2022-12-18T11:27:40;13.60;;;11.32;;
39970;SDS011;35425;51.142;17.178;2022-12-18T11:30:13;15.82;;;11.80;;
39970;SDS011;35425;51.142;17.178;2022-12-18T11:32:47;14.35;;;10.52;;
39970;SDS011;35425;51.142;17.178;2022-12-18T11:35:17;12.30;;;10.38;;
39970;SDS011;35425;51.142;17.178;2022-12-18T11:37:51;13.90;;;11.40;;
39970;SDS011;35425;51.142;17.178;2022-12-18T11:40:20;14.38;;;10.65;;
39970;SDS011;35425;51.142;17.178;2022-12-18T11:43:10;13.38;;;10.50;;
39970;SDS011;35425;51.142;17.178;2022-12-18T11:45:43;13.98;;;10.95;;
39970;SDS011;35425;51.142;17.178;2022-12-18T11:50:51;13.25;;;10.02;;
39970;SDS011;35425;51.142;17.178;2022-12-18T11:53:19;12.40;;;9.80;;
39970;SDS011;35425;51.142;17.178;2022-12-18T11:55:56;14.77;;;11.07;;
39970;SDS011;35425;51.142;17.178;2022-12-18T12:06:11;12.90;;;10.23;;
39970;SDS011;35425;51.142;17.178;2022-12-18T12:16:13;13.00;;;10.18;;
39970;SDS011;35425;51.142;17.178;2022-12-18T12:24:19;13.98;;;10.40;;
39970;SDS011;35425;51.142;17.178;2022-12-18T12:29:36;12.63;;;10.32;;
39970;SDS011;35425;51.142;17.178;2022-12-18T12:32:11;14.23;;;11.35;;
39970;SDS011;35425;51.142;17.178;2022-12-18T12:35:00;14.70;;;11.27;;
39970;SDS011;35425;51.142;17.178;2022-12-18T12:37:40;14.52;;;11.70;;
39970;SDS011;35425;51.142;17.178;2022-12-18T12:40:17;15.75;;;12.07;;
39970;SDS011;35425;51.142;17.178;2022-12-18T12:43:17;10.68;;;8.15;;
39970;SDS011;35425;51.142;17.178;2022-12-18T12:53:56;15.13;;;10.93;;
39970;SDS011;35425;51.142;17.178;2022-12-18T12:56:24;15.23;;;10.85;;
39970;SDS011;35425;51.142;17.178;2022-12-18T12:58:58;13.15;;;10.68;;
39970;SDS011;35425;51.142;17.178;2022-12-18T13:01:40;14.38;;;11.93;;
39970;SDS011;35425;51.142;17.178;2022-12-18T13:04:12;13.27;;;10.93;;
39970;SDS011;35425;51.142;17.178;2022-12-18T13:09:11;15.15;;;11.25;;
39970;SDS011;35425;51.142;17.178;2022-12-18T13:11:42;13.70;;;10.60;;
39970;SDS011;35425;51.142;17.178;2022-12-18T13:14:29;13.05;;;10.00;;
39970;SDS011;35425;51.142;17.178;2022-12-18T13:17:42;14.00;;;10.48;;
39970;SDS011;35425;51.142;17.178;2022-12-18T13:19:43;14.20;;;10.73;;
39970;SDS011;35425;51.142;17.178;2022-12-18T13:22:22;13.32;;;10.40;;
39970;SDS011;35425;51.142;17.178;2022-12-18T13:24:50;12.45;;;10.68;;
39970;SDS011;35425;51.142;17.178;2022-12-18T13:30:02;13.57;;;10.30;;
39970;SDS011;35425;51.142;17.178;2022-12-18T13:32:29;13.70;;;10.63;;
39970;SDS011;35425;51.142;17.178;2022-12-18T13:35:42;14.57;;;11.02;;
39970;SDS011;35425;51.142;17.178;2022-12-18T13:37:43;13.18;;;10.23;;
39970;SDS011;35425;51.142;17.178;2022-12-18T13:42:54;12.73;;;9.95;;
39970;SDS011;35425;51.142;17.178;2022-12-18T13:45:43;12.27;;;10.13;;
39970;SDS011;35425;51.142;17.178;2022-12-18T13:48:22;13.60;;;10.60;;
39970;SDS011;35425;51.142;17.178;2022-12-18T13:50:55;13.40;;;10.43;;
39970;SDS011;35425;51.142;17.178;2022-12-18T13:53:24;14.75;;;11.55;;
39970;SDS011;35425;51.142;17.178;2022-12-18T13:55:52;13.18;;;10.73;;
39970;SDS011;35425;51.142;17.178;2022-12-18T13:58:19;14.48;;;10.80;;
39970;SDS011;35425;51.142;17.178;2022-12-18T14:00:45;12.57;;;10.65;;
39970;SDS011;35425;51.142;17.178;2022-12-18T14:03:20;15.45;;;11.40;;
39970;SDS011;35425;51.142;17.178;2022-12-18T14:06:00;14.75;;;10.95;;
39970;SDS011;35425;51.142;17.178;2022-12-18T14:08:29;14.18;;;10.68;;
39970;SDS011;35425;51.142;17.178;2022-12-18T14:10:58;14.90;;;11.13;;
39970;SDS011;35425;51.142;17.178;2022-12-18T14:13:26;14.88;;;11.73;;
39970;SDS011;35425;51.142;17.178;2022-12-18T14:15:54;15.15;;;11.35;;
39970;SDS011;35425;51.142;17.178;2022-12-18T14:18:25;14.05;;;11.30;;
39970;SDS011;35425;51.142;17.178;2022-12-18T14:20:55;15.82;;;12.27;;
39970;SDS011;35425;51.142;17.178;2022-12-18T14:25:58;15.57;;;12.63;;
39970;SDS011;35425;51.142;17.178;2022-12-18T14:28:31;14.88;;;12.18;;
39970;SDS011;35425;51.142;17.178;2022-12-18T14:30:57;16.00;;;11.95;;
39970;SDS011;35425;51.142;17.178;2022-12-18T14:33:25;16.50;;;13.02;;
39970;SDS011;35425;51.142;17.178;2022-12-18T14:35:53;15.43;;;12.40;;
39970;SDS011;35425;51.142;17.178;2022-12-18T14:38:27;16.40;;;13.02;;
39970;SDS011;35425;51.142;17.178;2022-12-18T14:40:58;15.57;;;12.93;;
39970;SDS011;35425;51.142;17.178;2022-12-18T14:43:26;17.25;;;13.02;;
39970;SDS011;35425;51.142;17.178;2022-12-18T14:45:53;16.23;;;13.10;;
39970;SDS011;35425;51.142;17.178;2022-12-18T14:48:21;16.73;;;12.95;;
39970;SDS011;35425;51.142;17.178;2022-12-18T14:50:56;17.15;;;13.20;;
39970;SDS011;35425;51.142;17.178;2022-12-18T14:53:27;16.30;;;12.98;;
39970;SDS011;35425;51.142;17.178;2022-12-18T14:55:54;16.42;;;13.38;;
39970;SDS011;35425;51.142;17.178;2022-12-18T14:58:21;17.25;;;13.50;;
39970;SDS011;35425;51.142;17.178;2022-12-18T15:00:48;17.35;;;13.30;;
39970;SDS011;35425;51.142;17.178;2022-12-18T15:03:17;16.23;;;13.05;;
39970;SDS011;35425;51.142;17.178;2022-12-18T15:05:45;17.50;;;13.05;;
39970;SDS011;35425;51.142;17.178;2022-12-18T15:08:28;16.33;;;13.43;;
39970;SDS011;35425;51.142;17.178;2022-12-18T15:10:54;17.48;;;14.13;;
39970;SDS011;35425;51.142;17.178;2022-12-18T15:13:23;19.00;;;14.55;;
39970;SDS011;35425;51.142;17.178;2022-12-18T15:15:50;20.98;;;14.60;;
39970;SDS011;35425;51.142;17.178;2022-12-18T15:18:18;17.38;;;14.35;;
39970;SDS011;35425;51.142;17.178;2022-12-18T15:20:52;18.58;;;14.57;;
39970;SDS011;35425;51.142;17.178;2022-12-18T15:23:45;18.48;;;14.80;;
39970;SDS011;35425;51.142;17.178;2022-12-18T15:28:43;18.60;;;14.10;;
39970;SDS011;35425;51.142;17.178;2022-12-18T15:33:42;18.98;;;14.63;;
39970;SDS011;35425;51.142;17.178;2022-12-18T15:36:10;21.58;;;16.48;;
39970;SDS011;35425;51.142;17.178;2022-12-18T15:38:36;23.88;;;17.85;;
39970;SDS011;35425;51.142;17.178;2022-12-18T15:41:03;27.00;;;19.83;;
39970;SDS011;35425;51.142;17.178;2022-12-18T15:43:37;28.90;;;21.73;;
39970;SDS011;35425;51.142;17.178;2022-12-18T15:46:05;30.50;;;21.30;;
39970;SDS011;35425;51.142;17.178;2022-12-18T15:48:33;29.83;;;21.48;;
39970;SDS011;35425;51.142;17.178;2022-12-18T15:51:00;30.55;;;22.92;;
39970;SDS011;35425;51.142;17.178;2022-12-18T15:53:29;32.67;;;23.98;;
39970;SDS011;35425;51.142;17.178;2022-12-18T15:55:56;34.05;;;24.15;;
39970;SDS011;35425;51.142;17.178;2022-12-18T15:58:41;36.83;;;25.42;;
39970;SDS011;35425;51.142;17.178;2022-12-18T16:01:08;33.75;;;24.05;;
39970;SDS011;35425;51.142;17.178;2022-12-18T16:03:35;35.30;;;25.45;;
39970;SDS011;35425;51.142;17.178;2022-12-18T16:06:02;34.58;;;25.27;;